Time;durP1;ratioP1;P1;durP2;ratioP2;P2;SDS_P1;SDS_P2;PMS_P1;PMS_P2;Temp;Humidity;BMP_temperature;BMP_pressure;BME280_temperature;BME280_humidity;BME280_pressure;Samples;Min_cycle;Max_cycle;Signal;HPM_P1;HPM_P2
2023/04/22 00:01:24;;;;;;;16.70;8.48;;;;;;;9.59;97.87;98503.50;5043489;28;20386;-92
2023/04/22 00:03:51;;;;;;;17.27;7.75;;;;;;;9.30;98.13;98472.44;5042968;28;20041;-93
2023/04/22 00:06:19;;;;;;;19.67;9.02;;;;;;;9.36;99.70;98485.53;5047767;28;20071;-93
2023/04/22 00:08:45;;;;;;;16.98;8.13;;;;;;;9.25;99.55;98484.97;5043023;28;20041;-92
2023/04/22 00:11:11;;;;;;;18.58;9.15;;;;;;;9.35;99.57;98497.06;5045615;28;20045;-93
2023/04/22 00:13:37;;;;;;;17.25;8.98;;;;;;;9.43;99.25;98516.34;5045141;28;20077;-93
2023/04/22 00:16:03;;;;;;;17.92;8.95;;;;;;;9.01;100.00;98476.72;5048161;28;20020;-93
2023/04/22 00:18:29;;;;;;;19.55;9.95;;;;;;;8.88;100.00;98467.34;5041512;28;20044;-93
2023/04/22 00:20:55;;;;;;;16.30;8.18;;;;;;;8.90;100.00;98475.25;5045262;28;20159;-92
2023/04/22 00:23:23;;;;;;;21.40;9.20;;;;;;;8.71;100.00;98457.16;5046200;28;20147;-92
2023/04/22 00:25:50;;;;;;;19.08;8.48;;;;;;;8.90;100.00;98507.09;5046922;28;20038;-92
2023/04/22 00:28:16;;;;;;;20.33;8.73;;;;;;;8.62;100.00;98473.28;5045068;28;20060;-93
2023/04/22 00:30:43;;;;;;;18.42;8.43;;;;;;;8.63;100.00;98483.84;5032179;28;20045;-93
2023/04/22 00:33:09;;;;;;;18.92;8.13;;;;;;;8.68;100.00;98502.28;5032932;28;20045;-93
2023/04/22 00:35:36;;;;;;;19.67;8.85;;;;;;;8.52;100.00;98485.88;5035733;28;20041;-94
2023/04/22 00:38:02;;;;;;;17.80;8.32;;;;;;;8.44;100.00;98487.84;5035640;28;20034;-93
2023/04/22 00:40:29;;;;;;;23.73;9.73;;;;;;;8.34;100.00;98495.06;5036604;28;20041;-93
2023/04/22 00:42:57;;;;;;;20.05;9.73;;;;;;;8.45;100.00;98488.72;5035551;28;20059;-93
2023/04/22 00:45:25;;;;;;;22.52;9.23;;;;;;;8.34;100.00;98487.13;5035764;28;20041;-95
2023/04/22 00:47:51;;;;;;;22.50;8.57;;;;;;;8.36;100.00;98505.66;5036623;28;20044;-94
2023/04/22 00:50:17;;;;;;;17.92;8.48;;;;;;;8.44;100.00;98514.34;5035914;28;20441;-94
2023/04/22 00:52:43;;;;;;;17.90;8.30;;;;;;;8.35;100.00;98506.53;5038882;28;20490;-93
2023/04/22 00:55:10;;;;;;;22.50;9.50;;;;;;;8.28;100.00;98511.09;5036533;28;20021;-93
2023/04/22 00:57:39;;;;;;;19.77;9.02;;;;;;;8.12;100.00;98491.16;5034849;28;20067;-93
2023/04/22 01:00:08;;;;;;;19.15;8.43;;;;;;;8.19;100.00;98495.41;5034585;28;20045;-92
2023/04/22 01:02:35;;;;;;;19.90;9.38;;;;;;;8.49;100.00;98532.78;5034101;28;20037;-94
2023/04/22 01:05:02;;;;;;;20.45;9.65;;;;;;;8.42;100.00;98527.63;5035363;28;20048;-94
2023/04/22 01:07:28;;;;;;;22.35;9.80;;;;;;;8.38;100.00;98512.66;5038436;28;20120;-91
2023/04/22 01:09:55;;;;;;;24.75;9.45;;;;;;;8.32;100.00;98510.13;5033961;28;20721;-94
2023/04/22 01:12:21;;;;;;;16.67;9.10;;;;;;;8.47;100.00;98534.59;5030852;28;20487;-94
2023/04/22 01:14:49;;;;;;;25.65;10.32;;;;;;;8.37;100.00;98529.47;5037284;28;20041;-94
2023/04/22 01:17:15;;;;;;;27.83;10.98;;;;;;;8.13;100.00;98492.91;5035241;28;20132;-95
2023/04/22 01:19:42;;;;;;;26.48;11.40;;;;;;;8.16;100.00;98500.78;5037386;28;20083;-93
2023/04/22 01:22:10;;;;;;;20.58;10.18;;;;;;;8.47;100.00;98538.09;5031666;28;20092;-93
2023/04/22 01:24:38;;;;;;;23.58;9.70;;;;;;;8.58;100.00;98506.06;5035951;28;20554;-94
2023/04/22 01:27:04;;;;;;;20.23;9.55;;;;;;;8.89;100.00;98518.59;5032590;28;20041;-94
2023/04/22 01:29:31;;;;;;;24.08;10.45;;;;;;;9.23;100.00;98532.75;5038249;28;20065;-94
2023/04/22 01:31:57;;;;;;;24.15;9.57;;;;;;;9.22;100.00;98498.31;5036485;28;20062;-94
2023/04/22 01:34:23;;;;;;;25.15;10.35;;;;;;;9.28;100.00;98500.78;5036059;28;20137;-93
2023/04/22 01:36:49;;;;;;;21.80;9.65;;;;;;;9.42;100.00;98537.59;5039833;28;20014;-93
2023/04/22 01:39:16;;;;;;;21.10;9.75;;;;;;;9.42;100.00;98542.91;5040658;28;20056;-94
2023/04/22 01:41:44;;;;;;;19.15;9.32;;;;;;;9.08;100.00;98503.09;5037808;28;20487;-92
2023/04/22 01:44:10;;;;;;;17.38;8.48;;;;;;;9.04;100.00;98507.59;5036768;28;20044;-94
2023/04/22 01:46:36;;;;;;;18.60;9.10;;;;;;;8.94;100.00;98524.66;5039546;28;20041;-93
2023/04/22 01:49:02;;;;;;;17.60;8.77;;;;;;;8.82;100.00;98523.16;5037413;28;20053;-93
2023/04/22 01:51:28;;;;;;;16.15;8.75;;;;;;;8.83;100.00;98544.34;5058012;28;20054;-94
2023/04/22 01:53:54;;;;;;;17.33;8.77;;;;;;;8.62;100.00;98531.59;5035046;28;20041;-93
2023/04/22 01:56:20;;;;;;;17.33;7.57;;;;;;;8.61;100.00;98546.63;5038951;28;20187;-93
2023/04/22 01:58:48;;;;;;;16.65;7.55;;;;;;;8.32;100.00;98517.22;5038845;28;20045;-95
2023/04/22 02:01:14;;;;;;;20.23;8.20;;;;;;;8.29;100.00;98531.41;5034558;28;20076;-96
2023/04/22 02:03:40;;;;;;;17.80;8.07;;;;;;;8.13;100.00;98520.28;5037259;28;20041;-94
2023/04/22 02:06:06;;;;;;;12.38;7.10;;;;;;;8.05;100.00;98516.91;5035663;28;20037;-94
2023/04/22 02:08:33;;;;;;;13.85;7.18;;;;;;;8.07;100.00;98548.63;5038154;28;20049;-92
2023/04/22 02:10:59;;;;;;;15.50;7.45;;;;;;;7.95;100.00;98529.47;5038339;28;20042;-93
2023/04/22 02:13:26;;;;;;;14.82;7.82;;;;;;;7.80;100.00;98527.13;5035300;28;20045;-93
2023/04/22 02:15:53;;;;;;;13.43;7.93;;;;;;;7.75;100.00;98523.69;5036405;28;20056;-93
2023/04/22 02:18:19;;;;;;;13.57;7.10;;;;;;;7.82;100.00;98536.78;5036443;28;20029;-93
2023/04/22 02:20:45;;;;;;;14.82;7.97;;;;;;;7.78;100.00;98534.22;5037332;28;20053;-92
2023/04/22 02:23:11;;;;;;;14.82;7.20;;;;;;;7.68;100.00;98522.09;5037266;28;20864;-92
2023/04/22 02:25:38;;;;;;;17.60;8.13;;;;;;;7.59;100.00;98508.13;5038596;28;20046;-93
2023/04/22 02:28:04;;;;;;;12.88;7.07;;;;;;;7.64;100.00;98523.91;5041461;28;20073;-92
2023/04/22 02:30:30;;;;;;;13.52;8.05;;;;;;;7.68;100.00;98538.84;5037947;28;20064;-92
2023/04/22 02:32:57;;;;;;;12.70;7.00;;;;;;;7.53;100.00;98513.53;5038799;28;20406;-93
2023/04/22 02:35:23;;;;;;;13.02;7.18;;;;;;;7.54;100.00;98520.56;5036727;28;20037;-94
2023/04/22 02:37:49;;;;;;;16.35;7.68;;;;;;;7.73;100.00;98552.84;5038760;28;20049;-94
2023/04/22 02:40:15;;;;;;;12.32;7.53;;;;;;;7.58;100.00;98513.44;5041674;28;20463;-93
2023/04/22 02:42:41;;;;;;;12.63;7.25;;;;;;;7.64;100.00;98528.34;5042256;28;20041;-93
2023/04/22 02:45:08;;;;;;;12.23;7.03;;;;;;;7.66;100.00;98529.19;5040186;28;20052;-94
2023/04/22 02:47:34;;;;;;;13.65;7.97;;;;;;;7.63;100.00;98530.09;5041795;28;20037;-93
2023/04/22 02:50:06;;;;;;;12.05;6.85;;;;;;;7.66;100.00;98540.63;5042209;28;20061;-94
2023/04/22 02:52:32;;;;;;;13.10;6.53;;;;;;;7.55;100.00;98532.91;5043673;28;20133;-93
2023/04/22 02:54:58;;;;;;;11.43;7.10;;;;;;;7.63;100.00;98545.09;5045102;28;20045;-95
2023/04/22 02:57:26;;;;;;;12.85;7.10;;;;;;;7.45;100.00;98515.44;5046298;28;20029;-92
2023/04/22 02:59:52;;;;;;;12.00;6.95;;;;;;;7.33;100.00;98507.72;5044082;28;20054;-94
2023/04/22 03:02:18;;;;;;;14.13;6.90;;;;;;;7.30;100.00;98513.94;5039374;28;20491;-93
2023/04/22 03:04:44;;;;;;;10.55;6.20;;;;;;;7.50;100.00;98549.75;5043687;28;20041;-93
2023/04/22 03:07:13;;;;;;;11.80;6.70;;;;;;;7.25;100.00;98510.53;5045301;28;20301;-93
2023/04/22 03:09:40;;;;;;;11.18;6.25;;;;;;;7.48;100.00;98552.44;5043092;28;20033;-93
2023/04/22 03:12:06;;;;;;;14.10;6.28;;;;;;;7.24;100.00;98514.03;5042659;28;20547;-93
2023/04/22 03:14:31;;;;;;;12.10;6.57;;;;;;;7.22;100.00;98512.34;5047128;28;20052;-93
2023/04/22 03:16:57;;;;;;;13.75;7.43;;;;;;;7.36;100.00;98542.06;5041931;28;20037;-93
2023/04/22 03:19:24;;;;;;;11.73;6.75;;;;;;;7.17;100.00;98500.06;5046776;28;20049;-94
2023/04/22 03:21:50;;;;;;;11.05;6.70;;;;;;;7.26;100.00;98516.66;5040080;28;20053;-93
2023/04/22 03:24:18;;;;;;;13.88;7.97;;;;;;;7.46;100.00;98541.00;5045159;28;20049;-93
2023/04/22 03:26:44;;;;;;;15.77;7.28;;;;;;;7.40;100.00;98514.66;5043490;28;20041;-93
2023/04/22 03:29:12;;;;;;;14.88;7.38;;;;;;;7.41;100.00;98495.22;5045187;28;20041;-93
2023/04/22 03:31:38;;;;;;;15.02;7.28;;;;;;;8.00;100.00;98543.50;5053309;28;20060;-93
2023/04/22 03:34:05;;;;;;;14.98;7.75;;;;;;;7.97;100.00;98501.16;5050405;28;20039;-93
2023/04/22 03:36:30;;;;;;;12.45;7.43;;;;;;;8.03;100.00;98503.69;5051984;28;20045;-93
2023/04/22 03:38:56;;;;;;;13.10;7.72;;;;;;;7.92;100.00;98508.34;5049659;28;20048;-94
2023/04/22 03:41:25;;;;;;;11.93;7.35;;;;;;;7.94;100.00;98540.09;5044265;28;20480;-92
2023/04/22 03:43:51;;;;;;;13.30;7.90;;;;;;;7.85;100.00;98546.44;5042597;28;20045;-93
2023/04/22 03:46:17;;;;;;;13.40;7.13;;;;;;;7.58;100.00;98524.03;5051967;28;20088;-92
2023/04/22 03:48:43;;;;;;;12.13;6.97;;;;;;;7.49;100.00;98530.34;5045517;28;20064;-92
2023/04/22 03:51:11;;;;;;;12.00;7.20;;;;;;;7.56;100.00;98558.44;5049009;28;20110;-94
2023/04/22 03:53:37;;;;;;;12.85;7.38;;;;;;;7.28;100.00;98528.09;5035246;28;20042;-94
2023/04/22 03:56:05;;;;;;;12.70;7.18;;;;;;;7.23;100.00;98525.53;5043777;28;20113;-94
2023/04/22 03:58:34;;;;;;;10.45;6.13;;;;;;;7.12;100.00;98511.63;5047302;28;20053;-93
2023/04/22 04:01:00;;;;;;;12.93;6.93;;;;;;;7.19;100.00;98537.94;5043510;28;20050;-94
2023/04/22 04:03:26;;;;;;;11.95;6.88;;;;;;;7.00;100.00;98512.69;5047072;28;20537;-94
2023/04/22 04:05:52;;;;;;;14.52;8.27;;;;;;;6.97;100.00;98534.78;5045276;28;20087;-95
2023/04/22 04:08:18;;;;;;;11.98;7.22;;;;;;;7.09;100.00;98564.56;5046241;28;20052;-94
2023/04/22 04:10:44;;;;;;;10.75;7.28;;;;;;;7.07;100.00;98571.63;5047930;28;20128;-94
2023/04/22 04:13:10;;;;;;;11.38;6.97;;;;;;;6.74;100.00;98521.06;5043361;28;20119;-94
2023/04/22 04:15:38;;;;;;;12.02;6.95;;;;;;;6.99;100.00;98569.13;5042445;28;20044;-94
2023/04/22 04:18:04;;;;;;;13.27;7.20;;;;;;;6.68;100.00;98527.31;5043238;28;20055;-93
2023/04/22 04:20:30;;;;;;;13.55;7.47;;;;;;;6.98;100.00;98578.84;5045270;28;20494;-95
2023/04/22 04:22:56;;;;;;;13.25;7.70;;;;;;;6.88;100.00;98571.06;5048285;28;20132;-93
2023/04/22 04:25:22;;;;;;;12.88;7.85;;;;;;;6.96;100.00;98574.44;5047080;28;20073;-94
2023/04/22 04:27:50;;;;;;;13.52;7.60;;;;;;;6.77;100.00;98548.31;5044968;28;20091;-93
2023/04/22 04:30:16;;;;;;;14.00;6.73;;;;;;;6.90;100.00;98564.00;5046359;28;20095;-94
2023/04/22 04:32:44;;;;;;;12.05;6.60;;;;;;;6.91;100.00;98568.38;5047584;28;20041;-94
2023/04/22 04:35:13;;;;;;;12.43;7.30;;;;;;;6.91;100.00;98561.31;5053198;28;20445;-92
2023/04/22 04:37:41;;;;;;;12.90;7.32;;;;;;;6.76;100.00;98545.69;5053393;28;20063;-93
2023/04/22 04:40:09;;;;;;;11.45;7.47;;;;;;;6.90;100.00;98567.50;5048599;28;20068;-92
2023/04/22 04:42:36;;;;;;;12.48;7.40;;;;;;;7.01;100.00;98580.56;5048802;28;20095;-93
2023/04/22 04:45:02;;;;;;;12.48;7.32;;;;;;;6.87;100.00;98551.69;5048100;28;20441;-93
2023/04/22 04:47:28;;;;;;;11.98;7.15;;;;;;;7.02;100.00;98584.06;5041886;28;20562;-94
2023/04/22 04:49:57;;;;;;;12.25;7.53;;;;;;;7.06;100.00;98589.28;5045638;28;20037;-93
2023/04/22 04:52:23;;;;;;;12.23;7.07;;;;;;;6.79;100.00;98556.22;5042366;28;20058;-94
2023/04/22 04:54:49;;;;;;;13.07;7.25;;;;;;;6.87;100.00;98564.88;5046787;28;20037;-92
2023/04/22 04:57:15;;;;;;;15.88;8.38;;;;;;;7.14;100.00;98605.03;5051386;28;20049;-92
2023/04/22 04:59:41;;;;;;;12.30;7.38;;;;;;;7.17;100.00;98607.63;5049366;28;20040;-93
2023/04/22 05:02:06;;;;;;;12.32;7.40;;;;;;;7.08;100.00;98576.91;5054751;28;20040;-92
2023/04/22 05:04:32;;;;;;;13.60;7.43;;;;;;;7.10;100.00;98583.06;5051645;28;20049;-94
2023/04/22 05:07:00;;;;;;;13.73;7.78;;;;;;;7.02;100.00;98555.84;5049034;28;20041;-93
2023/04/22 05:09:26;;;;;;;12.02;7.68;;;;;;;7.13;100.00;98577.69;5055380;28;20051;-93
2023/04/22 05:11:52;;;;;;;13.35;7.82;;;;;;;7.14;100.00;98546.88;5051692;28;20069;-94
2023/04/22 05:14:18;;;;;;;13.27;7.60;;;;;;;7.24;100.00;98561.66;5054603;28;20048;-93
2023/04/22 05:16:44;;;;;;;17.42;9.57;;;;;;;7.37;100.00;98580.84;5052719;28;20055;-93
2023/04/22 05:19:11;;;;;;;13.65;8.48;;;;;;;7.28;100.00;98571.28;5051036;28;20122;-93
2023/04/22 05:21:37;;;;;;;14.82;8.60;;;;;;;7.35;100.00;98577.34;5055531;28;20502;-93
2023/04/22 05:24:05;;;;;;;15.30;8.82;;;;;;;7.55;100.00;98587.59;5058780;28;20045;-92
2023/04/22 05:26:31;;;;;;;16.27;8.95;;;;;;;7.76;100.00;98605.75;5054896;28;20059;-93
2023/04/22 05:28:57;;;;;;;12.75;8.00;;;;;;;7.86;100.00;98616.16;5048471;28;20041;-93
2023/04/22 05:31:23;;;;;;;17.80;8.20;;;;;;;7.94;100.00;98620.41;5049515;28;20045;-93
2023/04/22 05:33:49;;;;;;;18.05;8.75;;;;;;;8.01;100.00;98606.13;5057024;28;20049;-92
2023/04/22 05:36:15;;;;;;;16.17;8.88;;;;;;;7.92;100.00;98606.31;5052591;28;20049;-93
2023/04/22 05:38:41;;;;;;;15.82;9.50;;;;;;;7.86;100.00;98600.25;5050714;28;20052;-93
2023/04/22 05:41:08;;;;;;;13.52;9.02;;;;;;;8.03;100.00;98604.31;5050511;28;20045;-93
2023/04/22 05:43:34;;;;;;;15.40;8.70;;;;;;;8.18;100.00;98610.22;5055929;28;20049;-92
2023/04/22 05:46:00;;;;;;;21.23;11.30;;;;;;;8.27;100.00;98598.56;5049959;28;20041;-94
2023/04/22 05:48:26;;;;;;;15.57;9.52;;;;;;;8.79;100.00;98640.78;5057857;28;20057;-93
2023/04/22 05:50:54;;;;;;;14.73;8.93;;;;;;;9.15;100.00;98632.91;5050038;28;20037;-95
2023/04/22 05:53:20;;;;;;;15.25;9.80;;;;;;;9.27;100.00;98599.03;5051235;28;20183;-93
2023/04/22 05:55:46;;;;;;;15.48;9.05;;;;;;;9.51;100.00;98601.03;5046603;28;20510;-94
2023/04/22 05:58:13;;;;;;;13.65;8.55;;;;;;;9.80;100.00;98610.03;5047215;28;20044;-94
2023/04/22 06:00:39;;;;;;;15.57;8.85;;;;;;;9.95;100.00;98620.25;5050819;28;20542;-94
2023/04/22 06:03:05;;;;;;;12.77;7.93;;;;;;;9.78;100.00;98594.16;5054393;28;20044;-94
2023/04/22 06:05:32;;;;;;;14.50;8.38;;;;;;;10.10;100.00;98600.38;5048538;28;20489;-93
2023/04/22 06:07:58;;;;;;;12.32;7.65;;;;;;;10.34;100.00;98590.84;5053359;28;20065;-94
2023/04/22 06:10:24;;;;;;;13.35;7.60;;;;;;;10.69;98.67;98615.53;5054590;28;20041;-93
2023/04/22 06:12:50;;;;;;;15.07;8.77;;;;;;;10.57;98.90;98618.56;5050874;28;20037;-93
2023/04/22 06:15:17;;;;;;;12.93;7.50;;;;;;;10.62;100.00;98603.34;5051209;28;20067;-93
2023/04/22 06:17:44;;;;;;;13.68;7.57;;;;;;;11.07;95.51;98638.31;5053468;28;20036;-94
2023/04/22 06:20:11;;;;;;;11.82;7.10;;;;;;;10.57;99.34;98610.59;5055755;28;20041;-93
2023/04/22 06:22:37;;;;;;;11.38;7.15;;;;;;;10.79;98.10;98617.00;5058013;28;20047;-93
2023/04/22 06:25:04;;;;;;;12.63;7.80;;;;;;;11.28;98.17;98643.88;5059547;28;20068;-93
2023/04/22 06:27:31;;;;;;;11.45;7.45;;;;;;;11.61;94.58;98644.56;5056719;28;20124;-93
2023/04/22 06:29:56;;;;;;;13.93;7.90;;;;;;;11.84;93.11;98606.50;5055220;28;20056;-92
2023/04/22 06:32:24;;;;;;;12.68;7.75;;;;;;;12.14;91.63;98595.69;5052603;28;20077;-93
2023/04/22 06:34:50;;;;;;;12.48;7.22;;;;;;;12.26;91.50;98583.72;5058119;28;20040;-93
2023/04/22 06:37:16;;;;;;;12.02;7.82;;;;;;;12.62;88.98;98596.59;5056712;28;20049;-94
2023/04/22 06:39:42;;;;;;;13.32;8.02;;;;;;;13.02;86.17;98619.06;5049585;28;20060;-92
2023/04/22 06:42:08;;;;;;;13.32;8.23;;;;;;;13.05;85.77;98590.44;5048007;28;20056;-94
2023/04/22 06:44:34;;;;;;;14.95;7.78;;;;;;;12.92;85.74;98590.09;5061898;28;20037;-93
2023/04/22 06:47:00;;;;;;;12.55;7.68;;;;;;;12.94;85.15;98625.56;5051837;28;20040;-94
2023/04/22 06:49:44;;;;;;;13.00;8.13;;;;;;;12.63;86.66;98619.69;5056477;28;20053;-92
2023/04/22 06:52:10;;;;;;;14.93;8.20;;;;;;;12.53;87.15;98601.38;5053861;28;20036;-91
2023/04/22 06:54:37;;;;;;;13.52;8.77;;;;;;;11.87;90.02;98619.69;5054112;28;20033;-93
2023/04/22 06:57:03;;;;;;;15.20;9.18;;;;;;;12.05;92.16;98620.88;5058133;28;20127;-92
2023/04/22 06:59:29;;;;;;;15.30;10.10;;;;;;;12.40;88.27;98617.88;5055496;28;20033;-93
2023/04/22 07:01:55;;;;;;;15.32;9.82;;;;;;;12.86;86.61;98638.34;5049251;28;20053;-92
2023/04/22 07:04:20;;;;;;;14.82;9.90;;;;;;;12.82;86.29;98617.19;5050945;28;20183;-93
2023/04/22 07:06:48;;;;;;;18.50;11.63;;;;;;;12.74;87.45;98604.13;5046403;28;20050;-92
2023/04/22 07:09:14;;;;;;;18.27;11.32;;;;;;;13.20;87.23;98639.69;5048953;28;20052;-91
2023/04/22 07:11:40;;;;;;;18.65;10.60;;;;;;;13.05;88.84;98622.47;5055245;28;20075;-92
2023/04/22 07:14:06;;;;;;;23.60;12.70;;;;;;;13.20;87.98;98636.16;5048204;28;20045;-91
2023/04/22 07:16:32;;;;;;;16.60;10.20;;;;;;;13.39;86.49;98606.94;5054981;28;20033;-91
2023/04/22 07:18:58;;;;;;;15.20;9.73;;;;;;;13.65;83.12;98588.03;5051746;28;20048;-91
2023/04/22 07:21:25;;;;;;;16.20;9.85;;;;;;;13.86;80.52;98585.38;5053966;28;20033;-93
2023/04/22 07:23:52;;;;;;;16.95;9.98;;;;;;;14.03;81.80;98593.53;5054481;28;20080;-91
2023/04/22 07:26:18;;;;;;;16.50;10.32;;;;;;;13.99;81.02;98594.59;5051666;28;20772;-92
2023/04/22 07:28:44;;;;;;;17.77;11.60;;;;;;;14.47;80.69;98612.06;5049483;28;20037;-90
2023/04/22 07:31:10;;;;;;;19.85;12.20;;;;;;;15.07;79.11;98622.69;5044433;28;20103;-91
2023/04/22 07:33:36;;;;;;;19.45;11.73;;;;;;;15.14;76.54;98629.50;5048535;28;20037;-92
2023/04/22 07:36:02;;;;;;;18.15;10.55;;;;;;;15.52;76.07;98634.78;5052650;28;20045;-91
2023/04/22 07:38:28;;;;;;;16.48;9.93;;;;;;;15.29;74.15;98617.19;5051307;28;20021;-94
2023/04/22 07:40:55;;;;;;;15.52;9.80;;;;;;;14.93;76.48;98620.66;5051175;28;20055;-91
2023/04/22 07:43:21;;;;;;;16.25;10.48;;;;;;;14.99;76.13;98588.25;5053073;28;20044;-90
2023/04/22 07:45:47;;;;;;;17.38;10.65;;;;;;;15.22;74.33;98586.25;5051853;28;20135;-91
2023/04/22 07:48:13;;;;;;;19.13;10.85;;;;;;;15.14;75.88;98602.72;5045065;28;20041;-91
2023/04/22 07:50:39;;;;;;;15.07;9.18;;;;;;;15.67;75.13;98618.91;5048995;28;20474;-92
2023/04/22 07:53:05;;;;;;;13.43;9.38;;;;;;;15.94;73.04;98600.56;5051008;28;20406;-91
2023/04/22 07:55:31;;;;;;;16.10;10.00;;;;;;;16.26;70.35;98604.22;5045621;28;20033;-91
2023/04/22 07:58:02;;;;;;;14.43;9.52;;;;;;;16.52;69.62;98621.63;5050972;28;20033;-94
2023/04/22 08:00:28;;;;;;;14.73;8.82;;;;;;;16.47;67.48;98580.75;5047706;28;20487;-92
2023/04/22 08:02:54;;;;;;;14.25;8.65;;;;;;;16.18;70.36;98601.13;5046908;28;20036;-93
2023/04/22 08:05:21;;;;;;;13.88;8.88;;;;;;;16.51;69.50;98601.13;5049495;28;20072;-94
2023/04/22 08:07:46;;;;;;;12.93;8.60;;;;;;;16.66;68.12;98588.69;5051909;28;20044;-95
2023/04/22 08:10:12;;;;;;;16.48;8.93;;;;;;;16.91;67.24;98592.72;5045760;28;20032;-91
2023/04/22 08:12:38;;;;;;;14.65;8.35;;;;;;;16.90;67.45;98583.81;5054610;28;20152;-93
2023/04/22 08:15:07;;;;;;;12.82;8.95;;;;;;;17.27;66.43;98613.97;5051037;28;20076;-93
2023/04/22 08:17:33;;;;;;;12.40;8.93;;;;;;;17.11;65.83;98596.97;5054849;28;20048;-93
2023/04/22 08:19:59;;;;;;;14.98;8.98;;;;;;;17.04;65.67;98581.22;5050287;28;20052;-92
2023/04/22 08:22:26;;;;;;;14.13;9.70;;;;;;;17.11;65.25;98571.00;5052818;28;20045;-91
2023/04/22 08:24:52;;;;;;;11.07;7.72;;;;;;;17.47;65.59;98587.78;5048931;28;20044;-91
2023/04/22 08:27:20;;;;;;;12.52;8.73;;;;;;;17.18;65.56;98604.63;5049224;28;20056;-93
2023/04/22 08:29:46;;;;;;;14.23;8.20;;;;;;;17.35;66.05;98579.47;5045348;28;20426;-90
2023/04/22 08:32:13;;;;;;;15.90;8.70;;;;;;;17.44;64.09;98595.06;5044687;28;20060;-92
2023/04/22 08:34:39;;;;;;;13.63;9.15;;;;;;;17.65;65.17;98598.31;5046427;28;20048;-92
2023/04/22 08:37:05;;;;;;;13.35;8.85;;;;;;;17.51;62.98;98557.06;5049630;28;20029;-92
2023/04/22 08:39:31;;;;;;;14.90;9.65;;;;;;;17.61;62.78;98593.22;5042931;28;20038;-92
2023/04/22 08:41:57;;;;;;;13.45;8.85;;;;;;;17.20;64.06;98609.91;5047827;28;20091;-91
2023/04/22 08:44:23;;;;;;;16.40;10.23;;;;;;;17.48;64.56;98587.69;5043614;28;20037;-91
2023/04/22 08:46:50;;;;;;;12.55;8.20;;;;;;;17.99;63.85;98600.84;5044598;28;20033;-92
2023/04/22 08:49:18;;;;;;;12.77;8.13;;;;;;;18.27;62.72;98591.97;5047626;28;20062;-92
2023/04/22 08:51:44;;;;;;;11.88;8.40;;;;;;;18.48;59.80;98555.66;5040819;28;20109;-92
2023/04/22 08:54:11;;;;;;;14.32;8.80;;;;;;;18.83;59.05;98576.81;5052255;28;20087;-92
2023/04/22 08:56:41;;;;;;;13.85;8.85;;;;;;;18.98;58.44;98582.19;5046984;28;20057;-92
2023/04/22 08:59:09;;;;;;;13.57;9.50;;;;;;;19.07;57.49;98552.81;5046341;28;20043;-91
2023/04/22 09:01:36;;;;;;;16.35;11.05;;;;;;;19.03;57.42;98561.19;5047430;28;20062;-92
2023/04/22 09:04:02;;;;;;;16.95;9.57;;;;;;;18.59;60.01;98584.59;5046539;28;20452;-92
2023/04/22 09:06:31;;;;;;;16.00;9.55;;;;;;;19.05;58.89;98592.47;5047811;28;20037;-93
2023/04/22 09:08:57;;;;;;;16.38;9.15;;;;;;;19.20;57.53;98576.28;5047134;28;20049;-91
2023/04/22 09:11:26;;;;;;;12.43;8.45;;;;;;;19.55;55.81;98586.56;5046771;28;20048;-91
2023/04/22 09:13:52;;;;;;;11.88;8.80;;;;;;;19.30;55.99;98569.31;5049448;28;20041;-90
2023/04/22 09:16:18;;;;;;;13.27;8.77;;;;;;;19.21;57.26;98586.94;5048226;28;20041;-92
2023/04/22 09:18:45;;;;;;;13.68;8.50;;;;;;;19.54;55.81;98588.38;5052337;28;20045;-94
2023/04/22 09:21:11;;;;;;;12.32;7.68;;;;;;;19.47;54.00;98547.50;5047146;28;20048;-92
2023/04/22 09:23:46;;;;;;;13.45;8.45;;;;;;;19.31;56.36;98554.84;5050331;28;20045;-92
2023/04/22 09:26:13;;;;;;;13.82;8.13;;;;;;;19.08;56.25;98543.78;5047060;28;20075;-93
2023/04/22 09:28:48;;;;;;;10.10;7.85;;;;;;;19.18;56.36;98537.75;5051096;28;20040;-92
2023/04/22 09:31:14;;;;;;;14.20;8.57;;;;;;;19.50;54.46;98558.06;5045938;28;20091;-93
2023/04/22 09:33:40;;;;;;;14.63;7.70;;;;;;;19.63;54.32;98527.56;5047920;28;20440;-92
2023/04/22 09:36:08;;;;;;;15.23;8.98;;;;;;;19.61;54.40;98540.28;5045654;28;20115;-90
2023/04/22 09:38:34;;;;;;;12.15;7.80;;;;;;;19.82;53.03;98532.56;5042562;28;20558;-91
2023/04/22 09:41:08;;;;;;;13.43;7.68;;;;;;;20.19;51.61;98540.81;5049674;28;20407;-93
2023/04/22 09:43:36;;;;;;;12.88;8.48;;;;;;;19.33;52.72;98520.56;5051218;28;20049;-93
2023/04/22 09:46:02;;;;;;;13.32;8.68;;;;;;;19.34;53.31;98521.44;5045348;28;20045;-93
2023/04/22 09:48:29;;;;;;;14.68;7.10;;;;;;;19.56;50.96;98535.22;5047381;28;20032;-93
2023/04/22 09:50:55;;;;;;;10.23;6.95;;;;;;;19.98;48.96;98538.66;5049100;28;20132;-92
2023/04/22 09:53:21;;;;;;;13.15;7.47;;;;;;;20.10;50.61;98504.53;5048157;28;20112;-92
2023/04/22 09:55:49;;;;;;;13.95;7.40;;;;;;;20.19;50.18;98533.59;5051266;28;20041;-93
2023/04/22 09:58:19;;;;;;;11.30;7.95;;;;;;;20.33;51.60;98540.72;5055073;28;20041;-94
2023/04/22 10:00:47;;;;;;;9.70;6.50;;;;;;;20.31;47.34;98503.00;5054463;28;20548;-93
2023/04/22 10:03:13;;;;;;;12.90;6.20;;;;;;;20.76;45.71;98534.97;5056084;28;20033;-93
2023/04/22 10:05:40;;;;;;;11.57;5.80;;;;;;;20.88;43.98;98531.41;5056474;28;20028;-92
2023/04/22 10:08:08;;;;;;;8.07;5.35;;;;;;;20.65;44.48;98516.00;5053178;28;20123;-92
2023/04/22 10:10:35;;;;;;;8.45;5.75;;;;;;;20.97;44.89;98521.75;5056007;28;20037;-93
2023/04/22 10:13:03;;;;;;;8.15;5.93;;;;;;;20.63;44.09;98507.13;5051040;28;20040;-92
2023/04/22 10:15:33;;;;;;;8.95;6.07;;;;;;;20.21;44.21;98499.25;5049597;28;20090;-92
2023/04/22 10:18:01;;;;;;;8.38;5.05;;;;;;;20.44;44.01;98507.56;5051580;28;20041;-91
2023/04/22 10:20:28;;;;;;;5.80;4.00;;;;;;;20.57;40.41;98500.31;5051926;28;20056;-92
2023/04/22 10:22:56;;;;;;;7.32;4.72;;;;;;;20.81;42.02;98526.53;5056957;28;20033;-93
2023/04/22 10:25:24;;;;;;;7.18;5.10;;;;;;;20.54;42.92;98519.44;5056098;28;20124;-92
2023/04/22 10:28:00;;;;;;;6.78;4.57;;;;;;;20.62;43.00;98511.66;5053798;28;20037;-93
2023/04/22 10:30:27;;;;;;;7.32;4.68;;;;;;;20.78;41.03;98488.94;5049186;28;20056;-93
2023/04/22 10:32:55;;;;;;;7.70;5.07;;;;;;;20.88;41.30;98509.78;5052190;28;20127;-91
2023/04/22 10:35:28;;;;;;;7.32;5.30;;;;;;;21.09;40.65;98493.78;5054357;28;20016;-93
2023/04/22 10:37:54;;;;;;;7.20;4.90;;;;;;;21.26;40.03;98505.19;5050274;28;20021;-93
2023/04/22 10:40:21;;;;;;;8.32;4.88;;;;;;;21.33;39.88;98510.00;5047521;28;20114;-92
2023/04/22 10:42:50;;;;;;;9.65;4.70;;;;;;;21.22;40.71;98509.09;5051022;28;20060;-95
2023/04/22 10:45:16;;;;;;;6.88;4.80;;;;;;;21.12;39.53;98504.38;5051365;28;20128;-92
2023/04/22 10:47:43;;;;;;;7.82;4.68;;;;;;;21.23;40.23;98495.47;5048725;28;20132;-94
2023/04/22 10:50:25;;;;;;;7.90;4.60;;;;;;;21.38;40.39;98506.94;5052356;28;20033;-93
2023/04/22 10:52:54;;;;;;;6.60;4.10;;;;;;;21.30;40.50;98474.22;5052379;28;20049;-93
2023/04/22 10:55:20;;;;;;;7.03;4.07;;;;;;;21.30;39.98;98485.91;5049346;28;20037;-93
2023/04/22 10:57:48;;;;;;;7.78;4.60;;;;;;;21.50;40.51;98497.94;5050112;28;20610;-94
2023/04/22 11:00:26;;;;;;;5.85;4.18;;;;;;;21.59;40.38;98487.41;5051698;28;20056;-94
2023/04/22 11:03:05;;;;;;;8.27;4.60;;;;;;;21.41;37.62;98481.53;5046755;28;20375;-92
2023/04/22 11:05:34;;;;;;;4.95;3.83;;;;;;;21.47;39.22;98476.53;5049719;28;20068;-94
2023/04/22 11:08:02;;;;;;;6.95;4.03;;;;;;;21.52;38.25;98506.81;5049120;28;20036;-92
2023/04/22 11:10:39;;;;;;;7.15;4.22;;;;;;;21.54;39.30;98488.63;5048239;28;20084;-92
2023/04/22 11:13:06;;;;;;;5.75;3.85;;;;;;;21.74;38.33;98489.78;5052805;28;20041;-92
2023/04/22 11:15:35;;;;;;;5.30;3.80;;;;;;;21.79;37.08;98485.84;5049922;28;20041;-91
2023/04/22 11:18:01;;;;;;;5.85;4.03;;;;;;;21.77;37.62;98491.38;5046913;28;20398;-93
2023/04/22 11:20:27;;;;;;;6.35;3.78;;;;;;;21.70;36.58;98487.44;5045876;28;20044;-92
2023/04/22 11:22:56;;;;;;;6.10;3.50;;;;;;;21.85;36.62;98494.34;5048157;28;20045;-90
2023/04/22 11:25:24;;;;;;;6.60;3.65;;;;;;;22.01;37.47;98493.16;5048211;28;20045;-93